sensor_id;sensor_type;location;lat;lon;timestamp;temperature;humidity
35668;DHT22;22158;59.280;17.806;2022-07-23T00:00:17;18.00;99.90
35668;DHT22;22158;59.280;17.806;2022-07-23T00:02:43;18.00;99.90
35668;DHT22;22158;59.280;17.806;2022-07-23T00:05:10;18.00;99.90
35668;DHT22;22158;59.280;17.806;2022-07-23T00:07:36;18.00;99.90
35668;DHT22;22158;59.280;17.806;2022-07-23T00:10:03;17.90;99.90
35668;DHT22;22158;59.280;17.806;2022-07-23T00:12:29;17.90;99.90
35668;DHT22;22158;59.280;17.806;2022-07-23T00:14:54;17.80;99.90
35668;DHT22;22158;59.280;17.806;2022-07-23T00:17:20;17.80;99.90
35668;DHT22;22158;59.280;17.806;2022-07-23T00:19:46;17.80;99.90
35668;DHT22;22158;59.280;17.806;2022-07-23T00:22:12;17.60;99.90
35668;DHT22;22158;59.280;17.806;2022-07-23T00:24:38;17.60;99.90
35668;DHT22;22158;59.280;17.806;2022-07-23T00:27:03;17.60;99.90
35668;DHT22;22158;59.280;17.806;2022-07-23T00:29:29;17.60;99.90
35668;DHT22;22158;59.280;17.806;2022-07-23T00:31:55;17.50;99.90
35668;DHT22;22158;59.280;17.806;2022-07-23T00:34:20;17.50;99.90
35668;DHT22;22158;59.280;17.806;2022-07-23T00:36:46;17.40;99.90
35668;DHT22;22158;59.280;17.806;2022-07-23T00:39:12;17.40;99.90
35668;DHT22;22158;59.280;17.806;2022-07-23T00:41:37;17.30;99.90
35668;DHT22;22158;59.280;17.806;2022-07-23T00:44:23;17.20;99.90
35668;DHT22;22158;59.280;17.806;2022-07-23T00:46:57;17.20;99.90
35668;DHT22;22158;59.280;17.806;2022-07-23T00:49:25;17.10;99.90
35668;DHT22;22158;59.280;17.806;2022-07-23T00:51:51;17.00;99.90
35668;DHT22;22158;59.280;17.806;2022-07-23T00:54:18;17.00;99.90
35668;DHT22;22158;59.280;17.806;2022-07-23T00:56:45;17.00;99.90
35668;DHT22;22158;59.280;17.806;2022-07-23T00:59:11;17.00;99.90
35668;DHT22;22158;59.280;17.806;2022-07-23T01:01:37;17.00;99.90
35668;DHT22;22158;59.280;17.806;2022-07-23T01:04:03;16.90;99.90
35668;DHT22;22158;59.280;17.806;2022-07-23T01:06:32;16.80;99.90
35668;DHT22;22158;59.280;17.806;2022-07-23T01:08:59;16.70;99.90
35668;DHT22;22158;59.280;17.806;2022-07-23T01:11:25;16.70;99.90
35668;DHT22;22158;59.280;17.806;2022-07-23T01:13:50;16.60;99.90
35668;DHT22;22158;59.280;17.806;2022-07-23T01:16:16;16.50;99.90
35668;DHT22;22158;59.280;17.806;2022-07-23T01:18:42;16.40;99.90
35668;DHT22;22158;59.280;17.806;2022-07-23T01:21:11;16.30;99.90
35668;DHT22;22158;59.280;17.806;2022-07-23T01:23:38;16.30;99.90
35668;DHT22;22158;59.280;17.806;2022-07-23T01:26:04;16.20;99.90
35668;DHT22;22158;59.280;17.806;2022-07-23T01:28:30;16.20;99.90
35668;DHT22;22158;59.280;17.806;2022-07-23T01:30:56;16.20;99.90
35668;DHT22;22158;59.280;17.806;2022-07-23T01:33:21;16.00;99.90
35668;DHT22;22158;59.280;17.806;2022-07-23T01:35:47;15.90;99.90
35668;DHT22;22158;59.280;17.806;2022-07-23T01:38:13;15.80;99.90
35668;DHT22;22158;59.280;17.806;2022-07-23T01:40:39;15.80;99.90
35668;DHT22;22158;59.280;17.806;2022-07-23T01:43:04;15.80;99.90
35668;DHT22;22158;59.280;17.806;2022-07-23T01:45:30;15.70;99.90
35668;DHT22;22158;59.280;17.806;2022-07-23T01:47:56;15.70;99.90
35668;DHT22;22158;59.280;17.806;2022-07-23T01:50:21;15.70;99.90
35668;DHT22;22158;59.280;17.806;2022-07-23T01:52:47;15.60;99.90
35668;DHT22;22158;59.280;17.806;2022-07-23T01:55:13;15.70;99.90
35668;DHT22;22158;59.280;17.806;2022-07-23T01:57:38;15.70;99.90
35668;DHT22;22158;59.280;17.806;2022-07-23T02:00:05;15.70;99.90
35668;DHT22;22158;59.280;17.806;2022-07-23T02:02:30;15.60;99.90
35668;DHT22;22158;59.280;17.806;2022-07-23T02:04:56;15.60;99.90
35668;DHT22;22158;59.280;17.806;2022-07-23T02:07:22;15.50;99.90
35668;DHT22;22158;59.280;17.806;2022-07-23T02:09:47;15.30;99.90
35668;DHT22;22158;59.280;17.806;2022-07-23T02:12:13;15.40;99.90
35668;DHT22;22158;59.280;17.806;2022-07-23T02:14:39;15.30;99.90
35668;DHT22;22158;59.280;17.806;2022-07-23T02:17:05;15.30;99.90
35668;DHT22;22158;59.280;17.806;2022-07-23T02:19:30;15.30;99.90
35668;DHT22;22158;59.280;17.806;2022-07-23T02:21:56;15.30;99.90
35668;DHT22;22158;59.280;17.806;2022-07-23T02:24:22;15.30;99.90
35668;DHT22;22158;59.280;17.806;2022-07-23T02:26:47;15.20;99.90
35668;DHT22;22158;59.280;17.806;2022-07-23T02:29:13;15.20;99.90
35668;DHT22;22158;59.280;17.806;2022-07-23T02:31:39;15.20;99.90
35668;DHT22;22158;59.280;17.806;2022-07-23T02:34:05;15.20;99.90
35668;DHT22;22158;59.280;17.806;2022-07-23T02:36:30;15.30;99.90
35668;DHT22;22158;59.280;17.806;2022-07-23T02:38:56;15.20;99.90
35668;DHT22;22158;59.280;17.806;2022-07-23T02:41:23;15.20;99.90
35668;DHT22;22158;59.280;17.806;2022-07-23T02:43:48;15.20;99.90
35668;DHT22;22158;59.280;17.806;2022-07-23T02:46:14;15.20;99.90
35668;DHT22;22158;59.280;17.806;2022-07-23T02:48:40;15.20;99.90
35668;DHT22;22158;59.280;17.806;2022-07-23T02:51:05;15.20;99.90
35668;DHT22;22158;59.280;17.806;2022-07-23T02:53:31;15.30;99.90
35668;DHT22;22158;59.280;17.806;2022-07-23T02:55:57;15.30;99.90
35668;DHT22;22158;59.280;17.806;2022-07-23T02:58:22;15.30;99.90
35668;DHT22;22158;59.280;17.806;2022-07-23T03:00:48;15.30;99.90
35668;DHT22;22158;59.280;17.806;2022-07-23T03:03:14;15.40;99.90
35668;DHT22;22158;59.280;17.806;2022-07-23T03:05:39;15.40;99.90
35668;DHT22;22158;59.280;17.806;2022-07-23T03:08:05;15.40;99.90
35668;DHT22;22158;59.280;17.806;2022-07-23T03:10:31;15.40;99.90
35668;DHT22;22158;59.280;17.806;2022-07-23T03:12:56;15.40;99.90
35668;DHT22;22158;59.280;17.806;2022-07-23T03:15:22;15.40;99.90
35668;DHT22;22158;59.280;17.806;2022-07-23T03:17:48;15.40;99.90
35668;DHT22;22158;59.280;17.806;2022-07-23T03:20:13;15.50;99.90
35668;DHT22;22158;59.280;17.806;2022-07-23T03:22:39;15.50;99.90
35668;DHT22;22158;59.280;17.806;2022-07-23T03:25:05;15.40;99.90
35668;DHT22;22158;59.280;17.806;2022-07-23T03:27:31;15.30;99.90
35668;DHT22;22158;59.280;17.806;2022-07-23T03:29:58;15.30;99.90
35668;DHT22;22158;59.280;17.806;2022-07-23T03:32:25;15.20;99.90
35668;DHT22;22158;59.280;17.806;2022-07-23T03:34:51;15.20;99.90
35668;DHT22;22158;59.280;17.806;2022-07-23T03:37:18;15.10;99.90
35668;DHT22;22158;59.280;17.806;2022-07-23T03:39:44;15.20;99.90
35668;DHT22;22158;59.280;17.806;2022-07-23T03:42:10;15.20;99.90
35668;DHT22;22158;59.280;17.806;2022-07-23T03:44:35;15.20;99.90
35668;DHT22;22158;59.280;17.806;2022-07-23T03:47:03;15.20;99.90
35668;DHT22;22158;59.280;17.806;2022-07-23T03:49:29;15.20;99.90
35668;DHT22;22158;59.280;17.806;2022-07-23T03:51:55;15.20;99.90
35668;DHT22;22158;59.280;17.806;2022-07-23T03:54:20;15.20;99.90
35668;DHT22;22158;59.280;17.806;2022-07-23T03:56:46;15.10;99.90
35668;DHT22;22158;59.280;17.806;2022-07-23T03:59:12;15.10;99.90
35668;DHT22;22158;59.280;17.806;2022-07-23T04:01:38;15.20;99.90
35668;DHT22;22158;59.280;17.806;2022-07-23T04:04:03;15.20;99.90
35668;DHT22;22158;59.280;17.806;2022-07-23T04:06:29;15.20;99.90
35668;DHT22;22158;59.280;17.806;2022-07-23T04:08:55;15.20;99.90
35668;DHT22;22158;59.280;17.806;2022-07-23T04:11:21;15.20;99.90
35668;DHT22;22158;59.280;17.806;2022-07-23T04:13:47;15.30;99.90
35668;DHT22;22158;59.280;17.806;2022-07-23T04:16:12;15.30;99.90
35668;DHT22;22158;59.280;17.806;2022-07-23T04:18:38;15.30;99.90
35668;DHT22;22158;59.280;17.806;2022-07-23T04:21:04;15.30;99.90
35668;DHT22;22158;59.280;17.806;2022-07-23T04:23:29;15.20;99.90
35668;DHT22;22158;59.280;17.806;2022-07-23T04:25:55;15.30;99.90
35668;DHT22;22158;59.280;17.806;2022-07-23T04:28:21;15.30;99.90
35668;DHT22;22158;59.280;17.806;2022-07-23T04:30:46;15.20;99.90
35668;DHT22;22158;59.280;17.806;2022-07-23T04:33:12;15.20;99.90
35668;DHT22;22158;59.280;17.806;2022-07-23T04:35:38;15.20;99.90
35668;DHT22;22158;59.280;17.806;2022-07-23T04:38:04;15.30;99.90
35668;DHT22;22158;59.280;17.806;2022-07-23T04:40:30;15.30;99.90
35668;DHT22;22158;59.280;17.806;2022-07-23T04:42:56;15.30;99.90
35668;DHT22;22158;59.280;17.806;2022-07-23T04:45:21;15.40;99.90
35668;DHT22;22158;59.280;17.806;2022-07-23T04:47:49;15.40;99.90
35668;DHT22;22158;59.280;17.806;2022-07-23T04:50:15;15.40;99.90
35668;DHT22;22158;59.280;17.806;2022-07-23T04:52:44;15.50;99.90
35668;DHT22;22158;59.280;17.806;2022-07-23T04:55:10;15.50;99.90
35668;DHT22;22158;59.280;17.806;2022-07-23T04:57:36;15.60;99.90
35668;DHT22;22158;59.280;17.806;2022-07-23T05:00:03;15.50;99.90
35668;DHT22;22158;59.280;17.806;2022-07-23T05:02:29;15.60;99.90
35668;DHT22;22158;59.280;17.806;2022-07-23T05:04:55;15.50;99.90
35668;DHT22;22158;59.280;17.806;2022-07-23T05:07:20;15.50;99.90
35668;DHT22;22158;59.280;17.806;2022-07-23T05:09:46;15.50;99.90
35668;DHT22;22158;59.280;17.806;2022-07-23T05:12:12;15.50;99.90
35668;DHT22;22158;59.280;17.806;2022-07-23T05:14:37;15.60;99.90
35668;DHT22;22158;59.280;17.806;2022-07-23T05:17:03;15.60;99.90
35668;DHT22;22158;59.280;17.806;2022-07-23T05:19:29;15.60;99.90
35668;DHT22;22158;59.280;17.806;2022-07-23T05:21:54;15.60;99.90
35668;DHT22;22158;59.280;17.806;2022-07-23T05:24:20;15.60;99.90
35668;DHT22;22158;59.280;17.806;2022-07-23T05:26:46;15.50;99.90
35668;DHT22;22158;59.280;17.806;2022-07-23T05:29:11;15.50;99.90
35668;DHT22;22158;59.280;17.806;2022-07-23T05:31:37;15.50;99.90
35668;DHT22;22158;59.280;17.806;2022-07-23T05:34:03;15.50;99.90
35668;DHT22;22158;59.280;17.806;2022-07-23T05:36:31;15.60;99.90
35668;DHT22;22158;59.280;17.806;2022-07-23T05:38:56;15.60;99.90
35668;DHT22;22158;59.280;17.806;2022-07-23T05:41:22;15.60;99.90
35668;DHT22;22158;59.280;17.806;2022-07-23T05:43:48;15.60;99.90
35668;DHT22;22158;59.280;17.806;2022-07-23T05:46:14;15.60;99.90
35668;DHT22;22158;59.280;17.806;2022-07-23T05:48:39;15.60;99.90
35668;DHT22;22158;59.280;17.806;2022-07-23T05:51:05;15.70;99.90
35668;DHT22;22158;59.280;17.806;2022-07-23T05:53:32;15.70;99.90
35668;DHT22;22158;59.280;17.806;2022-07-23T05:55:58;15.70;99.90
35668;DHT22;22158;59.280;17.806;2022-07-23T05:58:24;15.70;99.90
35668;DHT22;22158;59.280;17.806;2022-07-23T06:00:49;15.70;99.90
35668;DHT22;22158;59.280;17.806;2022-07-23T06:03:15;15.80;99.90
35668;DHT22;22158;59.280;17.806;2022-07-23T06:05:41;15.70;99.90
35668;DHT22;22158;59.280;17.806;2022-07-23T06:08:06;15.80;99.90
35668;DHT22;22158;59.280;17.806;2022-07-23T06:10:32;15.80;99.90
35668;DHT22;22158;59.280;17.806;2022-07-23T06:12:58;15.90;99.90
35668;DHT22;22158;59.280;17.806;2022-07-23T06:15:24;15.90;99.90
35668;DHT22;22158;59.280;17.806;2022-07-23T06:17:49;16.00;99.90
35668;DHT22;22158;59.280;17.806;2022-07-23T06:20:15;16.00;99.90
35668;DHT22;22158;59.280;17.806;2022-07-23T06:22:41;16.00;99.90
35668;DHT22;22158;59.280;17.806;2022-07-23T06:25:07;16.10;99.90
35668;DHT22;22158;59.280;17.806;2022-07-23T06:27:32;16.30;99.90
35668;DHT22;22158;59.280;17.806;2022-07-23T06:29:58;16.40;99.90
35668;DHT22;22158;59.280;17.806;2022-07-23T06:32:24;16.50;99.90
35668;DHT22;22158;59.280;17.806;2022-07-23T06:34:49;16.60;99.90
35668;DHT22;22158;59.280;17.806;2022-07-23T06:37:15;16.60;99.90
35668;DHT22;22158;59.280;17.806;2022-07-23T06:39:42;16.70;99.90
35668;DHT22;22158;59.280;17.806;2022-07-23T06:42:07;16.80;99.90
35668;DHT22;22158;59.280;17.806;2022-07-23T06:44:33;16.90;99.90
35668;DHT22;22158;59.280;17.806;2022-07-23T06:46:59;16.90;99.90
35668;DHT22;22158;59.280;17.806;2022-07-23T06:49:24;17.00;99.90
35668;DHT22;22158;59.280;17.806;2022-07-23T06:51:50;17.00;99.90
35668;DHT22;22158;59.280;17.806;2022-07-23T06:54:16;17.10;99.90
35668;DHT22;22158;59.280;17.806;2022-07-23T06:56:41;17.10;99.90
35668;DHT22;22158;59.280;17.806;2022-07-23T06:59:08;17.10;99.90
35668;DHT22;22158;59.280;17.806;2022-07-23T07:01:34;17.20;99.90
35668;DHT22;22158;59.280;17.806;2022-07-23T07:04:00;17.30;99.90
35668;DHT22;22158;59.280;17.806;2022-07-23T07:06:25;17.30;99.90
35668;DHT22;22158;59.280;17.806;2022-07-23T07:08:51;17.40;99.90
35668;DHT22;22158;59.280;17.806;2022-07-23T07:11:17;17.30;99.90
35668;DHT22;22158;59.280;17.806;2022-07-23T07:13:42;17.30;99.90
35668;DHT22;22158;59.280;17.806;2022-07-23T07:16:08;17.40;99.90
35668;DHT22;22158;59.280;17.806;2022-07-23T07:18:34;17.40;99.90
35668;DHT22;22158;59.280;17.806;2022-07-23T07:21:00;17.30;99.90
35668;DHT22;22158;59.280;17.806;2022-07-23T07:23:25;17.20;99.90
35668;DHT22;22158;59.280;17.806;2022-07-23T07:25:51;17.20;99.90
35668;DHT22;22158;59.280;17.806;2022-07-23T07:28:17;17.20;99.90
35668;DHT22;22158;59.280;17.806;2022-07-23T07:30:42;17.30;99.90
35668;DHT22;22158;59.280;17.806;2022-07-23T07:33:08;17.30;99.90
35668;DHT22;22158;59.280;17.806;2022-07-23T07:35:34;17.40;99.90
35668;DHT22;22158;59.280;17.806;2022-07-23T07:38:00;17.50;99.90
35668;DHT22;22158;59.280;17.806;2022-07-23T07:40:26;17.60;99.90
35668;DHT22;22158;59.280;17.806;2022-07-23T07:42:53;17.70;99.90
35668;DHT22;22158;59.280;17.806;2022-07-23T07:45:21;17.80;99.90
35668;DHT22;22158;59.280;17.806;2022-07-23T07:47:47;18.00;99.90
35668;DHT22;22158;59.280;17.806;2022-07-23T07:50:12;18.10;99.90
35668;DHT22;22158;59.280;17.806;2022-07-23T07:52:38;18.10;99.90
35668;DHT22;22158;59.280;17.806;2022-07-23T07:55:06;18.10;99.90
35668;DHT22;22158;59.280;17.806;2022-07-23T07:57:32;18.10;99.90
35668;DHT22;22158;59.280;17.806;2022-07-23T07:59:58;18.00;99.90
35668;DHT22;22158;59.280;17.806;2022-07-23T08:02:23;18.00;99.90
35668;DHT22;22158;59.280;17.806;2022-07-23T08:04:49;18.10;99.90
35668;DHT22;22158;59.280;17.806;2022-07-23T08:07:15;18.10;99.90
35668;DHT22;22158;59.280;17.806;2022-07-23T08:09:41;18.20;99.90
35668;DHT22;22158;59.280;17.806;2022-07-23T08:12:07;18.10;99.90
35668;DHT22;22158;59.280;17.806;2022-07-23T08:14:33;17.90;99.90
35668;DHT22;22158;59.280;17.806;2022-07-23T08:16:58;17.80;99.90
35668;DHT22;22158;59.280;17.806;2022-07-23T08:19:24;17.70;99.90
35668;DHT22;22158;59.280;17.806;2022-07-23T08:21:50;17.60;99.90
35668;DHT22;22158;59.280;17.806;2022-07-23T08:24:15;17.60;99.90
35668;DHT22;22158;59.280;17.806;2022-07-23T08:26:41;17.60;99.90
35668;DHT22;22158;59.280;17.806;2022-07-23T08:29:07;17.60;99.90
35668;DHT22;22158;59.280;17.806;2022-07-23T08:31:33;17.60;99.90
35668;DHT22;22158;59.280;17.806;2022-07-23T08:34:01;17.60;99.90
35668;DHT22;22158;59.280;17.806;2022-07-23T08:36:28;17.70;99.90
35668;DHT22;22158;59.280;17.806;2022-07-23T08:38:58;17.70;99.90
35668;DHT22;22158;59.280;17.806;2022-07-23T08:41:24;17.80;99.90
35668;DHT22;22158;59.280;17.806;2022-07-23T08:43:50;17.80;99.90
35668;DHT22;22158;59.280;17.806;2022-07-23T08:46:19;17.90;99.90
35668;DHT22;22158;59.280;17.806;2022-07-23T08:48:48;17.90;99.90
35668;DHT22;22158;59.280;17.806;2022-07-23T08:51:14;17.80;99.90
35668;DHT22;22158;59.280;17.806;2022-07-23T08:53:40;17.80;99.90
35668;DHT22;22158;59.280;17.806;2022-07-23T08:56:07;17.80;99.90
35668;DHT22;22158;59.280;17.806;2022-07-23T08:58:33;17.80;99.90
35668;DHT22;22158;59.280;17.806;2022-07-23T09:01:00;17.80;99.90
35668;DHT22;22158;59.280;17.806;2022-07-23T09:03:30;17.90;99.90
35668;DHT22;22158;59.280;17.806;2022-07-23T09:05:56;17.90;99.90
35668;DHT22;22158;59.280;17.806;2022-07-23T09:08:24;18.00;99.90
35668;DHT22;22158;59.280;17.806;2022-07-23T09:16:18;17.90;99.90
35668;DHT22;22158;59.280;17.806;2022-07-23T09:18:48;17.80;99.90
35668;DHT22;22158;59.280;17.806;2022-07-23T09:21:20;17.70;99.90
35668;DHT22;22158;59.280;17.806;2022-07-23T09:26:37;17.70;99.90
35668;DHT22;22158;59.280;17.806;2022-07-23T09:29:16;17.70;99.90
35668;DHT22;22158;59.280;17.806;2022-07-23T09:31:50;17.70;99.90
35668;DHT22;22158;59.280;17.806;2022-07-23T09:36:45;17.70;99.90
35668;DHT22;22158;59.280;17.806;2022-07-23T09:39:13;17.70;99.90
35668;DHT22;22158;59.280;17.806;2022-07-23T09:41:44;17.70;99.90
35668;DHT22;22158;59.280;17.806;2022-07-23T09:44:11;17.70;99.90
35668;DHT22;22158;59.280;17.806;2022-07-23T09:46:37;17.70;99.90
35668;DHT22;22158;59.280;17.806;2022-07-23T09:49:23;17.60;99.90
35668;DHT22;22158;59.280;17.806;2022-07-23T09:51:52;17.50;99.90
35668;DHT22;22158;59.280;17.806;2022-07-23T09:54:36;17.60;99.90
35668;DHT22;22158;59.280;17.806;2022-07-23T09:57:11;17.50;99.90
35668;DHT22;22158;59.280;17.806;2022-07-23T09:59:43;17.50;99.90
35668;DHT22;22158;59.280;17.806;2022-07-23T10:02:11;17.50;99.90
35668;DHT22;22158;59.280;17.806;2022-07-23T10:04:38;17.50;99.90
35668;DHT22;22158;59.280;17.806;2022-07-23T10:07:06;17.50;99.90
35668;DHT22;22158;59.280;17.806;2022-07-23T10:09:35;17.40;99.90
35668;DHT22;22158;59.280;17.806;2022-07-23T10:12:04;17.40;99.90
35668;DHT22;22158;59.280;17.806;2022-07-23T10:14:49;17.50;99.90
35668;DHT22;22158;59.280;17.806;2022-07-23T10:17:15;17.50;99.90
35668;DHT22;22158;59.280;17.806;2022-07-23T10:19:41;17.50;99.90
35668;DHT22;22158;59.280;17.806;2022-07-23T10:22:09;17.50;99.90
35668;DHT22;22158;59.280;17.806;2022-07-23T10:29:55;17.40;99.90
35668;DHT22;22158;59.280;17.806;2022-07-23T10:38:24;17.30;99.90
35668;DHT22;22158;59.280;17.806;2022-07-23T10:40:59;17.40;99.90
35668;DHT22;22158;59.280;17.806;2022-07-23T10:43:25;17.30;99.90
35668;DHT22;22158;59.280;17.806;2022-07-23T10:45:52;17.30;99.90
35668;DHT22;22158;59.280;17.806;2022-07-23T10:48:20;17.30;99.90
35668;DHT22;22158;59.280;17.806;2022-07-23T10:51:09;17.40;99.90
35668;DHT22;22158;59.280;17.806;2022-07-23T10:59:05;17.50;99.90
35668;DHT22;22158;59.280;17.806;2022-07-23T11:01:34;17.50;99.90
35668;DHT22;22158;59.280;17.806;2022-07-23T11:04:00;17.50;99.90
35668;DHT22;22158;59.280;17.806;2022-07-23T11:17:30;17.60;99.90
35668;DHT22;22158;59.280;17.806;2022-07-23T11:20:12;17.50;99.90
35668;DHT22;22158;59.280;17.806;2022-07-23T11:27:49;17.40;99.90
35668;DHT22;22158;59.280;17.806;2022-07-23T11:35:35;17.20;99.90
35668;DHT22;22158;59.280;17.806;2022-07-23T11:38:15;17.20;99.90
35668;DHT22;22158;59.280;17.806;2022-07-23T11:40:43;17.10;99.90
35668;DHT22;22158;59.280;17.806;2022-07-23T11:43:10;17.10;99.90
35668;DHT22;22158;59.280;17.806;2022-07-23T11:46:02;17.00;99.90
35668;DHT22;22158;59.280;17.806;2022-07-23T11:48:29;17.10;99.90
35668;DHT22;22158;59.280;17.806;2022-07-23T11:50:56;17.10;99.90
35668;DHT22;22158;59.280;17.806;2022-07-23T11:53:27;17.20;99.90
35668;DHT22;22158;59.280;17.806;2022-07-23T11:55:53;17.20;99.90
35668;DHT22;22158;59.280;17.806;2022-07-23T11:58:20;17.20;99.90
35668;DHT22;22158;59.280;17.806;2022-07-23T12:00:46;17.20;99.90
35668;DHT22;22158;59.280;17.806;2022-07-23T12:03:12;17.10;99.90
35668;DHT22;22158;59.280;17.806;2022-07-23T12:05:39;17.10;99.90
35668;DHT22;22158;59.280;17.806;2022-07-23T12:08:09;17.10;99.90
35668;DHT22;22158;59.280;17.806;2022-07-23T12:10:43;17.10;99.90
35668;DHT22;22158;59.280;17.806;2022-07-23T12:13:16;17.20;99.90
35668;DHT22;22158;59.280;17.806;2022-07-23T12:15:49;17.10;99.90
35668;DHT22;22158;59.280;17.806;2022-07-23T12:18:18;17.10;99.90
35668;DHT22;22158;59.280;17.806;2022-07-23T12:20:55;17.10;99.90
35668;DHT22;22158;59.280;17.806;2022-07-23T12:23:26;17.10;99.90
35668;DHT22;22158;59.280;17.806;2022-07-23T12:25:53;17.10;99.90
35668;DHT22;22158;59.280;17.806;2022-07-23T12:28:30;17.10;99.90
35668;DHT22;22158;59.280;17.806;2022-07-23T12:30:57;17.20;99.90
35668;DHT22;22158;59.280;17.806;2022-07-23T12:33:27;17.20;99.90
35668;DHT22;22158;59.280;17.806;2022-07-23T12:35:55;17.20;99.90
35668;DHT22;22158;59.280;17.806;2022-07-23T12:38:24;17.10;99.90
35668;DHT22;22158;59.280;17.806;2022-07-23T12:40:52;17.10;99.90
35668;DHT22;22158;59.280;17.806;2022-07-23T12:43:20;17.10;99.90
35668;DHT22;22158;59.280;17.806;2022-07-23T12:45:50;17.10;99.90
35668;DHT22;22158;59.280;17.806;2022-07-23T12:51:01;17.10;99.90
35668;DHT22;22158;59.280;17.806;2022-07-23T12:56:07;17.10;99.90
35668;DHT22;22158;59.280;17.806;2022-07-23T13:01:09;17.10;99.90
35668;DHT22;22158;59.280;17.806;2022-07-23T13:03:39;17.10;99.90
35668;DHT22;22158;59.280;17.806;2022-07-23T13:06:10;17.10;99.90
35668;DHT22;22158;59.280;17.806;2022-07-23T13:08:38;17.10;99.90
35668;DHT22;22158;59.280;17.806;2022-07-23T13:11:06;17.10;99.90
35668;DHT22;22158;59.280;17.806;2022-07-23T13:13:34;17.10;99.90
35668;DHT22;22158;59.280;17.806;2022-07-23T13:16:01;17.10;99.90
35668;DHT22;22158;59.280;17.806;2022-07-23T13:18:28;17.10;99.90
35668;DHT22;22158;59.280;17.806;2022-07-23T13:20:54;17.10;99.90
35668;DHT22;22158;59.280;17.806;2022-07-23T13:23:20;17.10;99.90
35668;DHT22;22158;59.280;17.806;2022-07-23T13:25:46;17.10;99.90
35668;DHT22;22158;59.280;17.806;2022-07-23T13:28:13;17.00;99.90
35668;DHT22;22158;59.280;17.806;2022-07-23T13:30:40;17.00;99.90
35668;DHT22;22158;59.280;17.806;2022-07-23T13:33:07;17.00;99.90
35668;DHT22;22158;59.280;17.806;2022-07-23T13:35:35;17.00;99.90
35668;DHT22;22158;59.280;17.806;2022-07-23T13:38:02;17.00;99.90
35668;DHT22;22158;59.280;17.806;2022-07-23T13:40:28;17.00;99.90
35668;DHT22;22158;59.280;17.806;2022-07-23T13:42:54;17.10;99.90
35668;DHT22;22158;59.280;17.806;2022-07-23T13:45:19;17.10;99.90
35668;DHT22;22158;59.280;17.806;2022-07-23T13:47:45;17.10;99.90
35668;DHT22;22158;59.280;17.806;2022-07-23T13:50:11;17.20;99.90
35668;DHT22;22158;59.280;17.806;2022-07-23T13:52:37;17.20;99.90
35668;DHT22;22158;59.280;17.806;2022-07-23T13:55:06;17.20;99.90
35668;DHT22;22158;59.280;17.806;2022-07-23T13:57:32;17.20;99.90
35668;DHT22;22158;59.280;17.806;2022-07-23T13:59:58;17.20;99.90
35668;DHT22;22158;59.280;17.806;2022-07-23T14:02:24;17.20;99.90
35668;DHT22;22158;59.280;17.806;2022-07-23T14:04:50;17.30;99.90
35668;DHT22;22158;59.280;17.806;2022-07-23T14:07:16;17.30;99.90
35668;DHT22;22158;59.280;17.806;2022-07-23T14:09:42;17.40;99.90
35668;DHT22;22158;59.280;17.806;2022-07-23T14:12:09;17.50;99.90
35668;DHT22;22158;59.280;17.806;2022-07-23T14:14:35;17.50;99.90
35668;DHT22;22158;59.280;17.806;2022-07-23T14:17:01;17.60;99.90
35668;DHT22;22158;59.280;17.806;2022-07-23T14:19:27;17.60;99.90
35668;DHT22;22158;59.280;17.806;2022-07-23T14:21:53;17.60;99.90
35668;DHT22;22158;59.280;17.806;2022-07-23T14:24:18;17.60;99.90
35668;DHT22;22158;59.280;17.806;2022-07-23T14:26:44;17.50;99.90
35668;DHT22;22158;59.280;17.806;2022-07-23T14:29:10;17.50;99.90
35668;DHT22;22158;59.280;17.806;2022-07-23T14:31:35;17.40;99.90
35668;DHT22;22158;59.280;17.806;2022-07-23T14:34:02;17.40;99.90
35668;DHT22;22158;59.280;17.806;2022-07-23T14:36:27;17.40;99.90
35668;DHT22;22158;59.280;17.806;2022-07-23T14:38:53;17.40;99.90
35668;DHT22;22158;59.280;17.806;2022-07-23T14:41:19;17.40;99.90
35668;DHT22;22158;59.280;17.806;2022-07-23T14:43:44;17.40;99.90
35668;DHT22;22158;59.280;17.806;2022-07-23T14:46:11;17.40;99.90
35668;DHT22;22158;59.280;17.806;2022-07-23T14:48:37;17.50;99.90
35668;DHT22;22158;59.280;17.806;2022-07-23T14:51:03;17.50;99.90
35668;DHT22;22158;59.280;17.806;2022-07-23T14:53:29;17.50;99.90
35668;DHT22;22158;59.280;17.806;2022-07-23T14:55:55;17.50;99.90
35668;DHT22;22158;59.280;17.806;2022-07-23T14:58:23;17.60;99.90
35668;DHT22;22158;59.280;17.806;2022-07-23T15:00:49;17.50;99.90
35668;DHT22;22158;59.280;17.806;2022-07-23T15:03:15;17.50;99.90
35668;DHT22;22158;59.280;17.806;2022-07-23T15:05:41;17.50;99.90
35668;DHT22;22158;59.280;17.806;2022-07-23T15:08:07;17.50;99.90
35668;DHT22;22158;59.280;17.806;2022-07-23T15:10:33;17.40;99.90
35668;DHT22;22158;59.280;17.806;2022-07-23T15:12:58;17.20;99.90
35668;DHT22;22158;59.280;17.806;2022-07-23T15:15:24;17.20;99.90
35668;DHT22;22158;59.280;17.806;2022-07-23T15:17:50;17.10;99.90
35668;DHT22;22158;59.280;17.806;2022-07-23T15:20:15;16.90;99.90
35668;DHT22;22158;59.280;17.806;2022-07-23T15:22:41;16.70;99.90
35668;DHT22;22158;59.280;17.806;2022-07-23T15:25:07;16.60;99.90
35668;DHT22;22158;59.280;17.806;2022-07-23T15:27:33;16.60;99.90
35668;DHT22;22158;59.280;17.806;2022-07-23T15:29:59;16.50;99.90
35668;DHT22;22158;59.280;17.806;2022-07-23T15:32:25;16.50;99.90
35668;DHT22;22158;59.280;17.806;2022-07-23T15:34:52;16.50;99.90
35668;DHT22;22158;59.280;17.806;2022-07-23T15:37:18;16.50;99.90
35668;DHT22;22158;59.280;17.806;2022-07-23T15:39:44;16.50;99.90
35668;DHT22;22158;59.280;17.806;2022-07-23T15:42:10;16.50;99.90
35668;DHT22;22158;59.280;17.806;2022-07-23T15:44:35;16.50;99.90
35668;DHT22;22158;59.280;17.806;2022-07-23T15:47:01;16.50;99.90
35668;DHT22;22158;59.280;17.806;2022-07-23T15:49:27;16.50;99.90
35668;DHT22;22158;59.280;17.806;2022-07-23T15:51:54;16.40;99.90
35668;DHT22;22158;59.280;17.806;2022-07-23T15:54:20;16.50;99.90
35668;DHT22;22158;59.280;17.806;2022-07-23T15:56:46;16.50;99.90
35668;DHT22;22158;59.280;17.806;2022-07-23T15:59:12;16.50;99.90
35668;DHT22;22158;59.280;17.806;2022-07-23T16:01:38;16.40;99.90
35668;DHT22;22158;59.280;17.806;2022-07-23T16:04:04;16.40;99.90
35668;DHT22;22158;59.280;17.806;2022-07-23T16:06:32;16.40;99.90
35668;DHT22;22158;59.280;17.806;2022-07-23T16:08:58;16.40;99.90